createdAt,value
2022-08-24T00:01:58.656Z,48.70
2022-08-24T00:04:28.353Z,48.80
2022-08-24T00:07:02.209Z,48.90
2022-08-24T00:09:30.560Z,48.70
2022-08-24T00:11:58.666Z,48.70
2022-08-24T00:14:27.225Z,48.70
2022-08-24T00:16:55.499Z,48.60
2022-08-24T00:19:23.735Z,48.60
2022-08-24T00:21:52.173Z,48.70
2022-08-24T00:24:21.923Z,48.50
2022-08-24T00:26:50.153Z,48.50
2022-08-24T00:29:19.728Z,48.60
2022-08-24T00:31:48.763Z,48.70
2022-08-24T00:34:18.203Z,48.70
2022-08-24T00:36:47.156Z,48.90
2022-08-24T00:39:15.634Z,48.80
2022-08-24T00:41:47.623Z,48.90
2022-08-24T00:44:17.541Z,49.00
2022-08-24T00:46:49.323Z,49.00
2022-08-24T00:49:24.275Z,49.00
2022-08-24T00:51:59.581Z,49.00
2022-08-24T00:54:30.955Z,49.00
2022-08-24T00:57:03.601Z,48.90
2022-08-24T00:59:35.431Z,49.00
2022-08-24T01:02:15.360Z,49.10
2022-08-24T01:04:50.125Z,49.00
2022-08-24T01:07:18.335Z,49.10
2022-08-24T01:09:46.895Z,49.10
2022-08-24T01:12:17.420Z,49.10
2022-08-24T01:14:45.981Z,49.20
2022-08-24T01:17:38.761Z,49.10
2022-08-24T01:20:09.605Z,49.10
2022-08-24T01:23:06.497Z,49.10
2022-08-24T01:25:38.158Z,49.30
2022-08-24T01:28:12.947Z,49.20
2022-08-24T01:30:44.025Z,49.20
2022-08-24T01:33:23.365Z,49.40
2022-08-24T01:35:55.741Z,49.50
2022-08-24T01:38:23.987Z,49.50
2022-08-24T01:40:57.999Z,49.50
2022-08-24T01:43:26.557Z,49.60
2022-08-24T01:45:55.555Z,49.60
2022-08-24T01:48:24.360Z,49.50
2022-08-24T01:50:52.981Z,49.50
2022-08-24T01:53:21.223Z,49.60
2022-08-24T01:55:50.245Z,49.60
2022-08-24T01:58:19.995Z,49.50
2022-08-24T02:00:48.306Z,49.60
2022-08-24T02:03:16.902Z,49.50
2022-08-24T02:05:45.334Z,49.50
2022-08-24T02:08:13.452Z,49.60
2022-08-24T02:10:41.684Z,49.70
2022-08-24T02:13:16.860Z,49.70
2022-08-24T02:15:48.021Z,49.70
2022-08-24T02:18:16.279Z,49.90
2022-08-24T02:20:44.995Z,49.90
2022-08-24T02:23:13.533Z,49.90
2022-08-24T02:25:41.715Z,49.80
2022-08-24T02:28:09.836Z,49.90
2022-08-24T02:30:38.041Z,50.00
2022-08-24T02:33:08.338Z,50.00
2022-08-24T02:35:36.473Z,50.00
2022-08-24T02:38:04.983Z,50.00
2022-08-24T02:40:33.156Z,49.80
2022-08-24T02:43:01.472Z,49.80
2022-08-24T02:45:29.711Z,49.80
2022-08-24T02:47:58.972Z,49.70
2022-08-24T02:50:28.734Z,49.70
2022-08-24T02:52:56.954Z,49.70
2022-08-24T02:55:25.365Z,49.90
2022-08-24T02:57:53.666Z,50.00
2022-08-24T03:00:23.391Z,50.00
2022-08-24T03:02:51.823Z,50.00
2022-08-24T03:05:20.320Z,50.00
2022-08-24T03:07:49.817Z,50.10
2022-08-24T03:10:20.751Z,50.10
2022-08-24T03:12:50.179Z,50.20
2022-08-24T03:15:22.420Z,50.20
2022-08-24T03:17:51.389Z,50.20
2022-08-24T03:20:22.559Z,50.20
2022-08-24T03:22:52.423Z,50.20
2022-08-24T03:25:24.528Z,50.10
2022-08-24T03:27:53.430Z,50.10
2022-08-24T03:30:23.739Z,50.10
2022-08-24T03:32:52.308Z,50.20
2022-08-24T03:35:21.972Z,50.10
2022-08-24T03:37:51.579Z,50.20
2022-08-24T03:40:24.504Z,50.20
2022-08-24T03:42:53.962Z,50.10
2022-08-24T03:45:22.880Z,50.20
2022-08-24T03:47:51.064Z,50.20
2022-08-24T03:50:20.288Z,50.20
2022-08-24T03:52:49.050Z,50.20
2022-08-24T03:55:19.624Z,50.20
2022-08-24T03:57:47.739Z,50.40
2022-08-24T04:00:16.633Z,50.40
2022-08-24T04:02:45.419Z,50.40
2022-08-24T04:05:14.333Z,50.40
2022-08-24T04:07:42.446Z,50.40
2022-08-24T04:10:11.379Z,50.40
2022-08-24T04:12:40.918Z,50.40
2022-08-24T04:15:10.105Z,50.50
2022-08-24T04:17:38.253Z,50.60
2022-08-24T04:20:07.757Z,50.60
2022-08-24T04:22:36.441Z,50.50
2022-08-24T04:25:09.503Z,50.60
2022-08-24T04:27:38.161Z,50.60
2022-08-24T04:30:09.220Z,50.60
2022-08-24T04:32:37.667Z,50.70
2022-08-24T04:35:07.820Z,50.70
2022-08-24T04:37:35.936Z,50.90
2022-08-24T04:40:05.733Z,51.00
2022-08-24T04:42:33.977Z,51.10
2022-08-24T04:45:02.891Z,51.40
2022-08-24T04:47:32.424Z,51.40
2022-08-24T04:50:00.640Z,51.40
2022-08-24T04:52:29.747Z,51.20
2022-08-24T04:54:57.925Z,51.20
2022-08-24T04:57:26.043Z,51.10
2022-08-24T04:59:57.507Z,51.10
2022-08-24T05:02:25.660Z,51.00
2022-08-24T05:04:57.111Z,50.70
2022-08-24T05:07:25.689Z,50.50
2022-08-24T05:09:56.528Z,50.50
2022-08-24T05:12:27.453Z,50.60
2022-08-24T05:14:55.744Z,50.60
2022-08-24T05:17:23.942Z,50.60
2022-08-24T05:19:52.217Z,50.60
2022-08-24T05:22:21.863Z,50.60
2022-08-24T05:24:50.022Z,50.60
2022-08-24T05:27:18.981Z,50.70
2022-08-24T05:29:47.690Z,50.90
2022-08-24T05:32:17.982Z,50.90
2022-08-24T05:34:46.147Z,50.80
2022-08-24T05:37:14.243Z,50.70
2022-08-24T05:39:43.841Z,50.50
2022-08-24T05:42:13.606Z,50.50
2022-08-24T05:44:41.834Z,50.30
2022-08-24T05:47:10.288Z,50.20
2022-08-24T05:49:41.534Z,50.00
2022-08-24T05:52:10.229Z,50.00
2022-08-24T05:54:38.495Z,49.80
2022-08-24T05:57:08.020Z,49.70
2022-08-24T05:59:36.299Z,49.70
2022-08-24T06:02:04.635Z,49.70
2022-08-24T06:04:32.881Z,49.80
2022-08-24T06:07:00.988Z,49.90
2022-08-24T06:09:29.272Z,50.00
2022-08-24T06:11:57.364Z,49.80
2022-08-24T06:14:27.256Z,49.70
2022-08-24T06:16:55.547Z,49.70
2022-08-24T06:19:24.703Z,50.00
2022-08-24T06:21:54.148Z,50.20
2022-08-24T06:24:45.404Z,50.20
2022-08-24T06:27:22.318Z,50.10
2022-08-24T06:29:53.948Z,50.00
2022-08-24T06:32:22.580Z,49.80
2022-08-24T06:34:50.825Z,49.90
2022-08-24T06:37:19.367Z,50.00
2022-08-24T06:39:48.440Z,50.00
2022-08-24T06:42:24.619Z,50.10
2022-08-24T06:44:54.197Z,50.00
2022-08-24T06:47:22.851Z,50.00
2022-08-24T06:49:51.249Z,49.80
2022-08-24T06:52:19.385Z,49.50
2022-08-24T06:54:47.616Z,49.30
2022-08-24T06:57:15.718Z,49.20
2022-08-24T06:59:44.789Z,49.30
2022-08-24T07:02:16.195Z,49.20
2022-08-24T07:04:44.374Z,49.10
2022-08-24T07:07:12.569Z,49.10
2022-08-24T07:09:41.044Z,49.10
2022-08-24T07:12:09.526Z,49.00
2022-08-24T07:14:37.712Z,48.70
2022-08-24T07:17:06.087Z,48.70
2022-08-24T07:19:35.811Z,48.70
2022-08-24T07:22:03.935Z,48.70
2022-08-24T07:24:32.302Z,48.40
2022-08-24T07:27:00.479Z,48.50
2022-08-24T07:29:47.322Z,48.30
2022-08-24T07:32:16.840Z,48.10
2022-08-24T07:34:46.521Z,48.00
2022-08-24T07:37:14.616Z,47.80
2022-08-24T07:39:42.902Z,47.80
2022-08-24T07:42:15.888Z,47.80
2022-08-24T07:44:47.361Z,47.70
2022-08-24T07:47:36.945Z,47.60
2022-08-24T07:50:05.841Z,47.60
2022-08-24T07:52:34.240Z,47.60
2022-08-24T07:55:02.591Z,47.50
2022-08-24T07:57:30.979Z,47.50
2022-08-24T08:00:00.594Z,47.60
2022-08-24T08:02:29.362Z,47.50
2022-08-24T08:05:05.202Z,47.50
2022-08-24T08:07:33.517Z,47.40
2022-08-24T08:10:03.163Z,47.50
2022-08-24T08:12:31.273Z,47.40
2022-08-24T08:14:59.489Z,47.20
2022-08-24T08:17:27.661Z,47.20
2022-08-24T08:19:55.915Z,47.20
2022-08-24T08:22:42.748Z,47.20
2022-08-24T08:25:11.163Z,47.20
2022-08-24T08:27:39.298Z,47.10
2022-08-24T08:30:08.851Z,47.10
2022-08-24T08:32:36.992Z,47.10
2022-08-24T08:35:06.007Z,47.00
2022-08-24T08:40:06.783Z,46.80
2022-08-24T08:42:53.720Z,46.70
2022-08-24T08:45:48.948Z,46.50
2022-08-24T08:48:51.431Z,46.50
2022-08-24T08:51:46.892Z,46.40
2022-08-24T08:54:43.857Z,46.30
2022-08-24T08:57:33.672Z,46.30
2022-08-24T09:00:16.938Z,46.20
2022-08-24T09:03:00.151Z,46.00
2022-08-24T09:08:40.256Z,45.90
2022-08-24T09:11:22.664Z,45.80
2022-08-24T09:14:05.399Z,45.60
2022-08-24T09:16:50.275Z,45.50
2022-08-24T09:19:33.936Z,45.40
2022-08-24T09:22:13.377Z,45.40
2022-08-24T09:25:09.077Z,45.20
2022-08-24T09:27:54.192Z,45.00
2022-08-24T09:30:25.728Z,44.90
2022-08-24T09:33:06.547Z,44.80
2022-08-24T09:35:52.620Z,44.50
2022-08-24T09:38:28.417Z,44.40
2022-08-24T09:41:19.244Z,44.30
2022-08-24T09:44:16.607Z,44.00
2022-08-24T09:47:13.695Z,43.80
2022-08-24T09:50:07.763Z,43.60
2022-08-24T09:53:15.980Z,43.40
2022-08-24T09:56:34.949Z,43.20
2022-08-24T09:59:21.712Z,42.90
2022-08-24T10:02:16.088Z,42.70
2022-08-24T10:04:57.585Z,42.40
2022-08-24T10:07:32.634Z,42.20
2022-08-24T10:10:23.043Z,42.10
2022-08-24T10:13:03.506Z,42.00
2022-08-24T10:15:39.565Z,41.70
2022-08-24T10:18:25.328Z,41.30
2022-08-24T10:21:13.911Z,40.90
2022-08-24T10:23:55.158Z,40.90
2022-08-24T10:26:33.445Z,40.90
2022-08-24T10:29:18.336Z,40.70
2022-08-24T10:31:59.888Z,40.20
2022-08-24T10:34:47.461Z,39.90
2022-08-24T10:37:42.205Z,39.80
2022-08-24T10:40:40.333Z,39.90
2022-08-24T10:43:47.537Z,39.70
2022-08-24T10:46:38.326Z,39.50
2022-08-24T10:49:57.902Z,39.30
2022-08-24T10:53:05.737Z,38.90
2022-08-24T10:55:36.210Z,39.10
2022-08-24T10:58:45.761Z,39.00
2022-08-24T11:01:24.722Z,38.60
2022-08-24T11:03:57.412Z,38.10
2022-08-24T11:06:31.952Z,37.70
2022-08-24T11:09:03.593Z,37.50
2022-08-24T11:11:34.510Z,37.70
2022-08-24T11:14:06.469Z,37.90
2022-08-24T11:16:40.774Z,38.00
2022-08-24T11:19:13.144Z,38.20
2022-08-24T11:21:52.016Z,38.50
2022-08-24T11:24:31.439Z,39.00
2022-08-24T11:27:02.958Z,39.00
2022-08-24T11:29:54.845Z,38.70
2022-08-24T11:32:32.451Z,38.30
2022-08-24T11:35:08.595Z,37.60
2022-08-24T11:37:40.265Z,36.90
2022-08-24T11:40:10.437Z,37.30
2022-08-24T11:43:01.237Z,36.80
2022-08-24T11:45:38.401Z,36.60
2022-08-24T11:48:24.670Z,36.20
2022-08-24T11:51:01.091Z,36.50
2022-08-24T11:56:25.569Z,37.30
2022-08-24T11:59:00.734Z,37.10
2022-08-24T12:01:33.953Z,36.80
2022-08-24T12:04:13.594Z,36.20
2022-08-24T12:06:55.854Z,35.50
2022-08-24T12:09:44.513Z,35.00
2022-08-24T12:12:17.989Z,34.40
2022-08-24T12:14:51.684Z,34.10
2022-08-24T12:17:27.640Z,33.60
2022-08-24T12:20:01.332Z,32.70
2022-08-24T12:22:31.013Z,32.20
2022-08-24T12:25:24.108Z,32.10
2022-08-24T12:27:53.506Z,32.10
2022-08-24T12:30:21.903Z,32.60
2022-08-24T12:32:54.857Z,32.50
2022-08-24T12:35:28.386Z,32.10
2022-08-24T12:38:02.446Z,31.80
2022-08-24T12:40:37.139Z,31.50
2022-08-24T12:43:08.708Z,31.40
2022-08-24T12:45:37.929Z,31.40
2022-08-24T12:48:11.742Z,31.40
2022-08-24T12:50:46.621Z,31.50
2022-08-24T12:53:40.431Z,31.70
2022-08-24T12:56:32.723Z,31.80
2022-08-24T12:59:06.681Z,31.80
2022-08-24T13:01:37.195Z,32.20
2022-08-24T13:04:17.493Z,32.50
2022-08-24T13:06:51.005Z,32.60
2022-08-24T13:09:32.380Z,32.70
2022-08-24T13:12:41.432Z,32.70
2022-08-24T13:15:28.073Z,32.70
2022-08-24T13:18:02.944Z,32.90
2022-08-24T13:20:56.036Z,33.10
2022-08-24T13:23:25.166Z,33.10
2022-08-24T13:25:58.610Z,33.20
2022-08-24T13:28:40.930Z,33.00
2022-08-24T13:31:28.726Z,33.00
2022-08-24T13:34:01.199Z,33.10
2022-08-24T13:36:51.591Z,33.00
2022-08-24T13:39:50.974Z,33.00
2022-08-24T13:42:31.387Z,33.00
2022-08-24T13:45:17.900Z,33.00
2022-08-24T13:47:53.488Z,32.90
2022-08-24T13:50:41.191Z,32.90
2022-08-24T13:53:43.089Z,32.70
2022-08-24T13:56:32.597Z,33.20
2022-08-24T13:59:10.256Z,33.00
2022-08-24T14:01:58.888Z,33.00
2022-08-24T14:04:46.236Z,33.00
2022-08-24T14:07:21.153Z,33.10
2022-08-24T14:10:02.835Z,33.10
2022-08-24T14:12:51.286Z,33.10
2022-08-24T14:15:27.597Z,33.00
2022-08-24T14:18:09.492Z,33.10
2022-08-24T14:21:03.251Z,33.10
2022-08-24T14:23:52.623Z,33.40
2022-08-24T14:26:57.921Z,33.60
2022-08-24T14:29:39.315Z,33.60
2022-08-24T14:32:45.180Z,33.60
2022-08-24T14:35:30.139Z,33.70
2022-08-24T14:38:28.022Z,33.70
2022-08-24T14:41:20.480Z,33.80
2022-08-24T14:44:06.853Z,33.90
2022-08-24T14:46:45.559Z,34.00
2022-08-24T14:49:21.433Z,34.00
2022-08-24T14:52:17.823Z,34.00
2022-08-24T14:55:05.161Z,34.80
2022-08-24T14:58:15.631Z,34.20
2022-08-24T15:01:04.063Z,34.10
2022-08-24T15:04:00.065Z,34.20
2022-08-24T15:06:36.589Z,34.20
2022-08-24T15:09:11.336Z,34.30
2022-08-24T15:11:42.364Z,34.30
2022-08-24T15:14:22.545Z,34.40
2022-08-24T15:16:55.390Z,34.40
2022-08-24T15:19:30.747Z,34.40
2022-08-24T15:22:02.988Z,34.40
2022-08-24T15:24:40.658Z,34.40
2022-08-24T15:27:23.796Z,34.40
2022-08-24T15:29:56.417Z,34.30
2022-08-24T15:32:28.614Z,34.40
2022-08-24T15:34:59.258Z,34.50
2022-08-24T15:37:31.858Z,34.60
2022-08-24T15:40:02.137Z,34.70
2022-08-24T15:42:33.524Z,34.60
2022-08-24T15:45:04.229Z,34.60
2022-08-24T15:47:35.867Z,34.60
2022-08-24T15:50:08.188Z,34.50
2022-08-24T15:52:51.091Z,34.40
2022-08-24T15:55:39.768Z,34.50
2022-08-24T15:58:42.088Z,34.50
2022-08-24T16:01:43.004Z,34.40
2022-08-24T16:04:36.176Z,34.30
2022-08-24T16:07:04.557Z,34.30
2022-08-24T16:09:38.711Z,34.30
2022-08-24T16:12:12.828Z,34.20
2022-08-24T16:14:47.049Z,34.20
2022-08-24T16:17:30.248Z,34.10
2022-08-24T16:20:01.939Z,34.20
2022-08-24T16:22:35.688Z,34.40
2022-08-24T16:25:22.784Z,34.20
2022-08-24T16:28:11.329Z,34.30
2022-08-24T16:30:47.440Z,34.50
2022-08-24T16:33:43.601Z,34.60
2022-08-24T16:36:15.279Z,34.60
2022-08-24T16:38:50.047Z,34.70
2022-08-24T16:41:20.388Z,34.80
2022-08-24T16:43:50.083Z,34.80
2022-08-24T16:46:21.642Z,34.80
2022-08-24T16:48:49.975Z,34.90
2022-08-24T16:51:18.117Z,35.00
2022-08-24T16:53:46.270Z,35.00
2022-08-24T16:56:16.655Z,35.10
2022-08-24T16:58:47.457Z,35.20
2022-08-24T17:01:17.679Z,35.30
2022-08-24T17:03:45.950Z,35.30
2022-08-24T17:06:15.305Z,35.40
2022-08-24T17:08:43.624Z,35.40
2022-08-24T17:11:12.671Z,35.50
2022-08-24T17:13:50.150Z,35.60
2022-08-24T17:16:22.429Z,35.60
2022-08-24T17:18:50.608Z,35.70
2022-08-24T17:21:19.435Z,35.70
2022-08-24T17:23:48.330Z,35.80
2022-08-24T17:26:20.593Z,35.80
2022-08-24T17:28:51.762Z,35.80
2022-08-24T17:31:24.559Z,35.80
2022-08-24T17:33:53.411Z,35.90
2022-08-24T17:36:24.081Z,35.90
2022-08-24T17:38:55.950Z,36.00
2022-08-24T17:41:25.047Z,36.00
2022-08-24T17:43:53.373Z,36.10
2022-08-24T17:46:24.041Z,36.20
2022-08-24T17:48:52.261Z,36.30
2022-08-24T17:51:20.528Z,36.30
2022-08-24T17:53:48.881Z,36.40
2022-08-24T17:56:18.741Z,36.50
2022-08-24T17:59:09.952Z,36.60
2022-08-24T18:01:39.457Z,36.70
2022-08-24T18:04:07.646Z,36.80
2022-08-24T18:06:35.819Z,36.90
2022-08-24T18:09:07.416Z,37.00
2022-08-24T18:11:35.982Z,37.10
2022-08-24T18:14:04.120Z,37.30
2022-08-24T18:16:32.374Z,37.40
2022-08-24T18:19:02.823Z,37.60
2022-08-24T18:21:30.939Z,37.60
2022-08-24T18:24:01.405Z,37.80
2022-08-24T18:26:31.280Z,38.00
2022-08-24T18:29:07.536Z,38.10
2022-08-24T18:31:36.591Z,38.20
2022-08-24T18:34:06.508Z,38.50
2022-08-24T18:36:34.777Z,38.40
2022-08-24T18:39:06.981Z,38.50
2022-08-24T18:41:39.073Z,38.60
2022-08-24T18:44:09.211Z,38.80
2022-08-24T18:46:43.733Z,38.90
2022-08-24T18:49:13.552Z,39.00
2022-08-24T18:51:42.165Z,39.20
2022-08-24T18:54:14.112Z,39.20
2022-08-24T18:56:42.324Z,39.50
2022-08-24T18:59:12.455Z,39.70
2022-08-24T19:01:54.674Z,39.80
2022-08-24T19:04:25.863Z,40.10
2022-08-24T19:07:01.808Z,40.20
2022-08-24T19:09:34.214Z,40.40
2022-08-24T19:12:03.024Z,40.80
2022-08-24T19:14:31.238Z,41.10
2022-08-24T19:16:59.351Z,41.40
2022-08-24T19:19:28.961Z,41.70
2022-08-24T19:21:57.085Z,41.90
2022-08-24T19:24:28.515Z,42.00
2022-08-24T19:26:56.763Z,42.10
2022-08-24T19:29:54.583Z,42.20
2022-08-24T19:32:23.249Z,42.40
2022-08-24T19:34:53.295Z,42.60
2022-08-24T19:37:22.282Z,42.90
2022-08-24T19:39:51.189Z,43.10
2022-08-24T19:42:19.583Z,43.30
2022-08-24T19:45:05.318Z,43.50
2022-08-24T19:47:34.632Z,43.60
2022-08-24T19:50:07.780Z,43.70
2022-08-24T19:52:36.551Z,44.50
2022-08-24T19:55:06.383Z,43.80
2022-08-24T19:57:43.464Z,44.10
2022-08-24T20:00:26.518Z,44.20
2022-08-24T20:02:56.181Z,44.40
2022-08-24T20:05:28.287Z,44.40
2022-08-24T20:07:57.637Z,44.60
2022-08-24T20:10:27.013Z,44.70
2022-08-24T20:12:55.199Z,44.70
2022-08-24T20:15:25.008Z,44.90
2022-08-24T20:17:56.480Z,45.00
2022-08-24T20:20:27.767Z,45.20
2022-08-24T20:22:56.356Z,45.10
2022-08-24T20:25:24.717Z,45.20
2022-08-24T20:28:12.592Z,45.20
2022-08-24T20:30:43.189Z,45.30
2022-08-24T20:33:15.449Z,45.40
2022-08-24T20:35:45.461Z,45.50
2022-08-24T20:38:15.508Z,45.50
2022-08-24T20:40:43.676Z,45.60
2022-08-24T20:43:12.793Z,45.60
2022-08-24T20:45:42.106Z,45.70
2022-08-24T20:48:13.068Z,45.70
2022-08-24T20:50:43.488Z,45.80
2022-08-24T20:53:13.375Z,46.00
2022-08-24T20:55:42.238Z,46.20
2022-08-24T20:58:11.133Z,46.30
2022-08-24T21:00:41.008Z,46.30
2022-08-24T21:03:09.265Z,46.40
2022-08-24T21:05:37.662Z,46.50
2022-08-24T21:08:06.995Z,46.70
2022-08-24T21:10:36.619Z,46.60
2022-08-24T21:13:05.372Z,46.70
2022-08-24T21:15:34.503Z,46.70
2022-08-24T21:18:03.386Z,46.80
2022-08-24T21:20:32.689Z,46.90
2022-08-24T21:23:00.897Z,46.90
2022-08-24T21:25:29.030Z,47.00
2022-08-24T21:28:02.348Z,47.10
2022-08-24T21:30:31.300Z,47.20
2022-08-24T21:33:24.407Z,47.20
2022-08-24T21:35:54.896Z,47.20
2022-08-24T21:38:23.361Z,47.20
2022-08-24T21:40:53.595Z,47.20
2022-08-24T21:43:23.036Z,47.40
2022-08-24T21:45:52.332Z,47.50
2022-08-24T21:48:20.751Z,47.70
2022-08-24T21:50:49.404Z,48.30
2022-08-24T21:53:17.901Z,47.70
2022-08-24T21:55:46.387Z,47.80
2022-08-24T21:58:14.506Z,47.90
2022-08-24T22:00:44.070Z,47.90
2022-08-24T22:03:12.259Z,48.00
2022-08-24T22:05:40.542Z,48.00
2022-08-24T22:08:09.009Z,47.90
2022-08-24T22:10:37.673Z,48.00
2022-08-24T22:13:06.358Z,48.10
2022-08-24T22:15:34.749Z,48.10
2022-08-24T22:18:04.461Z,48.10
2022-08-24T22:20:32.908Z,48.30
2022-08-24T22:23:01.057Z,48.30
2022-08-24T22:25:30.080Z,48.40
2022-08-24T22:27:58.179Z,48.50
2022-08-24T22:30:26.357Z,48.60
2022-08-24T22:32:54.537Z,48.70
2022-08-24T22:35:24.197Z,48.70
2022-08-24T22:37:52.330Z,48.70
2022-08-24T22:40:20.759Z,48.70
2022-08-24T22:42:48.899Z,48.80
2022-08-24T22:45:17.103Z,48.90
2022-08-24T22:47:45.233Z,48.90
2022-08-24T22:50:13.423Z,48.80
2022-08-24T22:52:42.891Z,48.90
2022-08-24T22:55:12.072Z,48.90
2022-08-24T22:57:40.170Z,48.90
2022-08-24T23:00:10.650Z,49.00
2022-08-24T23:02:43.176Z,49.10
2022-08-24T23:05:11.700Z,49.20
2022-08-24T23:07:39.859Z,49.20
2022-08-24T23:10:12.233Z,49.20
2022-08-24T23:12:40.336Z,49.30
2022-08-24T23:15:09.556Z,49.30
2022-08-24T23:17:37.737Z,49.30
2022-08-24T23:20:07.748Z,49.40
2022-08-24T23:22:38.675Z,49.40
2022-08-24T23:25:07.745Z,49.50
2022-08-24T23:27:38.522Z,49.60
2022-08-24T23:30:09.950Z,49.60
2022-08-24T23:32:38.445Z,49.70
2022-08-24T23:35:07.723Z,49.80
2022-08-24T23:37:35.887Z,49.80
2022-08-24T23:40:05.483Z,49.80
2022-08-24T23:42:33.637Z,49.90
2022-08-24T23:45:03.226Z,49.90
2022-08-24T23:47:35.878Z,50.00
2022-08-24T23:50:06.704Z,50.00
2022-08-24T23:52:39.900Z,50.00
2022-08-24T23:55:21.158Z,50.10
2022-08-24T23:57:50.875Z,50.10
